sensor_id;sensor_type;location;lat;lon;timestamp;pressure;altitude;pressure_sealevel;temperature;humidity
48095;BME280;33874;52.070;-0.516;2023-03-13T00:01:39;98991.98;;;11.36;93.36
48095;BME280;33874;52.070;-0.516;2023-03-13T00:03:59;98990.80;;;11.37;93.27
48095;BME280;33874;52.070;-0.516;2023-03-13T00:06:31;98992.30;;;11.38;93.17
48095;BME280;33874;52.070;-0.516;2023-03-13T00:09:00;98997.39;;;11.39;93.24
48095;BME280;33874;52.070;-0.516;2023-03-13T00:11:28;98995.74;;;11.40;93.02
48095;BME280;33874;52.070;-0.516;2023-03-13T00:13:57;98992.42;;;11.40;92.93
48095;BME280;33874;52.070;-0.516;2023-03-13T00:16:25;98998.71;;;11.40;92.91
48095;BME280;33874;52.070;-0.516;2023-03-13T00:18:54;98991.83;;;11.40;92.79
48095;BME280;33874;52.070;-0.516;2023-03-13T00:21:23;98980.09;;;11.40;92.76
48095;BME280;33874;52.070;-0.516;2023-03-13T00:23:53;98970.88;;;11.40;92.84
48095;BME280;33874;52.070;-0.516;2023-03-13T00:26:22;98950.50;;;11.40;92.77
48095;BME280;33874;52.070;-0.516;2023-03-13T00:28:50;98928.46;;;11.41;92.83
48095;BME280;33874;52.070;-0.516;2023-03-13T00:31:23;98922.70;;;11.40;92.80
48095;BME280;33874;52.070;-0.516;2023-03-13T00:33:53;98913.36;;;11.40;92.67
48095;BME280;33874;52.070;-0.516;2023-03-13T00:36:23;98900.40;;;11.40;92.55
48095;BME280;33874;52.070;-0.516;2023-03-13T00:38:52;98900.14;;;11.39;92.59
48095;BME280;33874;52.070;-0.516;2023-03-13T00:41:24;98901.46;;;11.38;92.65
48095;BME280;33874;52.070;-0.516;2023-03-13T00:43:52;98905.98;;;11.39;92.63
48095;BME280;33874;52.070;-0.516;2023-03-13T00:46:21;98905.65;;;11.39;92.58
48095;BME280;33874;52.070;-0.516;2023-03-13T00:48:49;98897.50;;;11.39;92.78
48095;BME280;33874;52.070;-0.516;2023-03-13T00:51:18;98900.38;;;11.42;92.74
48095;BME280;33874;52.070;-0.516;2023-03-13T00:53:46;98899.15;;;11.43;92.80
48095;BME280;33874;52.070;-0.516;2023-03-13T00:56:16;98894.45;;;11.44;92.72
48095;BME280;33874;52.070;-0.516;2023-03-13T00:58:44;98904.95;;;11.46;92.79
48095;BME280;33874;52.070;-0.516;2023-03-13T01:03:41;98911.81;;;11.49;92.79
48095;BME280;33874;52.070;-0.516;2023-03-13T01:06:11;98902.41;;;11.49;92.74
48095;BME280;33874;52.070;-0.516;2023-03-13T01:08:39;98889.64;;;11.50;92.75
48095;BME280;33874;52.070;-0.516;2023-03-13T01:11:08;98895.01;;;11.51;92.74
48095;BME280;33874;52.070;-0.516;2023-03-13T01:13:37;98898.42;;;11.52;92.82
48095;BME280;33874;52.070;-0.516;2023-03-13T01:16:09;98901.41;;;11.53;92.86
48095;BME280;33874;52.070;-0.516;2023-03-13T01:18:38;98896.36;;;11.55;92.81
48095;BME280;33874;52.070;-0.516;2023-03-13T01:21:06;98900.98;;;11.55;92.68
48095;BME280;33874;52.070;-0.516;2023-03-13T01:23:35;98896.56;;;11.56;92.72
48095;BME280;33874;52.070;-0.516;2023-03-13T01:26:03;98900.02;;;11.58;92.77
48095;BME280;33874;52.070;-0.516;2023-03-13T01:28:33;98885.00;;;11.59;92.83
48095;BME280;33874;52.070;-0.516;2023-03-13T01:33:39;98886.18;;;11.61;92.79
48095;BME280;33874;52.070;-0.516;2023-03-13T01:36:07;98882.30;;;11.61;92.79
48095;BME280;33874;52.070;-0.516;2023-03-13T01:38:36;98886.56;;;11.60;92.76
48095;BME280;33874;52.070;-0.516;2023-03-13T01:41:04;98878.11;;;11.60;92.74
48095;BME280;33874;52.070;-0.516;2023-03-13T01:43:34;98876.89;;;11.60;92.77
48095;BME280;33874;52.070;-0.516;2023-03-13T01:54:08;98844.02;;;11.59;92.73
48095;BME280;33874;52.070;-0.516;2023-03-13T01:56:38;98841.63;;;11.58;92.71
48095;BME280;33874;52.070;-0.516;2023-03-13T01:59:08;98839.16;;;11.58;92.89
48095;BME280;33874;52.070;-0.516;2023-03-13T02:01:37;98829.09;;;11.59;92.90
48095;BME280;33874;52.070;-0.516;2023-03-13T02:04:05;98828.36;;;11.59;92.79
48095;BME280;33874;52.070;-0.516;2023-03-13T02:06:34;98821.58;;;11.58;92.85
48095;BME280;33874;52.070;-0.516;2023-03-13T02:09:05;98818.64;;;11.58;92.94
48095;BME280;33874;52.070;-0.516;2023-03-13T02:11:41;98816.64;;;11.57;93.17
48095;BME280;33874;52.070;-0.516;2023-03-13T02:14:11;98814.95;;;11.54;93.18
48095;BME280;33874;52.070;-0.516;2023-03-13T02:16:39;98802.71;;;11.53;93.20
48095;BME280;33874;52.070;-0.516;2023-03-13T02:19:13;98799.69;;;11.52;93.36
48095;BME280;33874;52.070;-0.516;2023-03-13T02:21:54;98802.40;;;11.50;93.40
48095;BME280;33874;52.070;-0.516;2023-03-13T02:24:28;98788.23;;;11.48;93.53
48095;BME280;33874;52.070;-0.516;2023-03-13T02:26:58;98781.03;;;11.47;93.76
48095;BME280;33874;52.070;-0.516;2023-03-13T02:29:26;98767.33;;;11.45;93.82
48095;BME280;33874;52.070;-0.516;2023-03-13T02:31:54;98765.83;;;11.44;93.85
48095;BME280;33874;52.070;-0.516;2023-03-13T02:34:25;98758.26;;;11.43;93.95
48095;BME280;33874;52.070;-0.516;2023-03-13T02:36:55;98743.38;;;11.41;94.11
48095;BME280;33874;52.070;-0.516;2023-03-13T02:39:24;98742.96;;;11.40;94.20
48095;BME280;33874;52.070;-0.516;2023-03-13T02:41:54;98738.35;;;11.39;94.16
48095;BME280;33874;52.070;-0.516;2023-03-13T02:44:22;98735.78;;;11.38;94.32
48095;BME280;33874;52.070;-0.516;2023-03-13T02:46:50;98730.27;;;11.39;94.54
48095;BME280;33874;52.070;-0.516;2023-03-13T02:49:23;98724.06;;;11.39;94.37
48095;BME280;33874;52.070;-0.516;2023-03-13T02:51:53;98713.11;;;11.40;94.35
48095;BME280;33874;52.070;-0.516;2023-03-13T02:54:22;98696.09;;;11.41;94.39
48095;BME280;33874;52.070;-0.516;2023-03-13T02:56:53;98688.51;;;11.42;94.37
48095;BME280;33874;52.070;-0.516;2023-03-13T02:59:22;98686.06;;;11.44;94.43
48095;BME280;33874;52.070;-0.516;2023-03-13T03:01:50;98683.59;;;11.45;94.51
48095;BME280;33874;52.070;-0.516;2023-03-13T03:04:22;98682.75;;;11.46;94.45
48095;BME280;33874;52.070;-0.516;2023-03-13T03:06:51;98677.13;;;11.48;94.37
48095;BME280;33874;52.070;-0.516;2023-03-13T03:09:19;98673.23;;;11.49;94.33
48095;BME280;33874;52.070;-0.516;2023-03-13T03:11:47;98667.05;;;11.51;94.27
48095;BME280;33874;52.070;-0.516;2023-03-13T03:14:15;98673.56;;;11.52;94.35
48095;BME280;33874;52.070;-0.516;2023-03-13T03:16:43;98668.66;;;11.53;94.23
48095;BME280;33874;52.070;-0.516;2023-03-13T03:19:11;98658.23;;;11.54;94.36
48095;BME280;33874;52.070;-0.516;2023-03-13T03:21:39;98658.04;;;11.54;94.15
48095;BME280;33874;52.070;-0.516;2023-03-13T03:24:07;98668.04;;;11.53;94.13
48095;BME280;33874;52.070;-0.516;2023-03-13T03:26:35;98670.36;;;11.52;94.15
48095;BME280;33874;52.070;-0.516;2023-03-13T03:29:02;98670.92;;;11.51;94.19
48095;BME280;33874;52.070;-0.516;2023-03-13T03:31:30;98667.83;;;11.52;94.24
48095;BME280;33874;52.070;-0.516;2023-03-13T03:33:59;98664.02;;;11.52;94.32
48095;BME280;33874;52.070;-0.516;2023-03-13T03:36:27;98657.41;;;11.53;94.31
48095;BME280;33874;52.070;-0.516;2023-03-13T03:38:55;98653.20;;;11.54;94.28
48095;BME280;33874;52.070;-0.516;2023-03-13T03:41:23;98649.89;;;11.53;94.21
48095;BME280;33874;52.070;-0.516;2023-03-13T03:43:51;98651.02;;;11.51;94.19
48095;BME280;33874;52.070;-0.516;2023-03-13T03:46:19;98655.02;;;11.50;94.30
48095;BME280;33874;52.070;-0.516;2023-03-13T03:48:47;98646.05;;;11.49;94.30
48095;BME280;33874;52.070;-0.516;2023-03-13T03:51:15;98640.85;;;11.48;94.20
48095;BME280;33874;52.070;-0.516;2023-03-13T03:53:43;98637.39;;;11.47;94.34
48095;BME280;33874;52.070;-0.516;2023-03-13T03:56:10;98640.31;;;11.48;94.30
48095;BME280;33874;52.070;-0.516;2023-03-13T03:58:38;98624.73;;;11.49;94.15
48095;BME280;33874;52.070;-0.516;2023-03-13T04:01:06;98624.85;;;11.49;94.14
48095;BME280;33874;52.070;-0.516;2023-03-13T04:03:34;98628.97;;;11.50;94.08
48095;BME280;33874;52.070;-0.516;2023-03-13T04:06:02;98632.63;;;11.50;93.87
48095;BME280;33874;52.070;-0.516;2023-03-13T04:08:30;98639.05;;;11.51;94.02
48095;BME280;33874;52.070;-0.516;2023-03-13T04:11:01;98621.11;;;11.52;93.88
48095;BME280;33874;52.070;-0.516;2023-03-13T04:13:29;98623.73;;;11.54;93.90
48095;BME280;33874;52.070;-0.516;2023-03-13T04:15:57;98621.80;;;11.55;93.71
48095;BME280;33874;52.070;-0.516;2023-03-13T04:18:25;98627.31;;;11.57;93.63
48095;BME280;33874;52.070;-0.516;2023-03-13T04:21:02;98623.70;;;11.59;93.55
48095;BME280;33874;52.070;-0.516;2023-03-13T04:23:31;98628.05;;;11.60;93.16
48095;BME280;33874;52.070;-0.516;2023-03-13T04:25:59;98619.71;;;11.59;92.76
48095;BME280;33874;52.070;-0.516;2023-03-13T04:28:27;98620.14;;;11.56;92.62
48095;BME280;33874;52.070;-0.516;2023-03-13T04:30:55;98605.58;;;11.53;92.24
48095;BME280;33874;52.070;-0.516;2023-03-13T04:33:24;98612.41;;;11.50;92.05
48095;BME280;33874;52.070;-0.516;2023-03-13T04:35:52;98607.13;;;11.46;91.75
48095;BME280;33874;52.070;-0.516;2023-03-13T04:38:20;98606.08;;;11.42;91.59
48095;BME280;33874;52.070;-0.516;2023-03-13T04:40:48;98595.36;;;11.38;91.37
48095;BME280;33874;52.070;-0.516;2023-03-13T04:43:16;98575.25;;;11.34;91.10
48095;BME280;33874;52.070;-0.516;2023-03-13T04:45:46;98577.43;;;11.30;91.03
48095;BME280;33874;52.070;-0.516;2023-03-13T04:48:13;98588.67;;;11.27;91.02
48095;BME280;33874;52.070;-0.516;2023-03-13T04:50:41;98578.39;;;11.25;90.83
48095;BME280;33874;52.070;-0.516;2023-03-13T04:53:09;98572.41;;;11.23;90.67
48095;BME280;33874;52.070;-0.516;2023-03-13T04:55:37;98580.45;;;11.20;90.59
48095;BME280;33874;52.070;-0.516;2023-03-13T04:58:04;98582.98;;;11.18;90.59
48095;BME280;33874;52.070;-0.516;2023-03-13T05:00:32;98572.90;;;11.17;90.50
48095;BME280;33874;52.070;-0.516;2023-03-13T05:03:00;98561.86;;;11.15;90.34
48095;BME280;33874;52.070;-0.516;2023-03-13T05:05:28;98565.67;;;11.16;90.57
48095;BME280;33874;52.070;-0.516;2023-03-13T05:07:56;98566.85;;;11.16;90.51
48095;BME280;33874;52.070;-0.516;2023-03-13T05:10:24;98571.55;;;11.18;90.63
48095;BME280;33874;52.070;-0.516;2023-03-13T05:12:52;98560.58;;;11.21;90.70
48095;BME280;33874;52.070;-0.516;2023-03-13T05:15:20;98560.48;;;11.25;90.72
48095;BME280;33874;52.070;-0.516;2023-03-13T05:17:48;98559.55;;;11.28;90.61
48095;BME280;33874;52.070;-0.516;2023-03-13T05:20:15;98556.05;;;11.31;90.64
48095;BME280;33874;52.070;-0.516;2023-03-13T05:22:43;98561.48;;;11.34;90.62
48095;BME280;33874;52.070;-0.516;2023-03-13T05:25:11;98554.21;;;11.35;90.69
48095;BME280;33874;52.070;-0.516;2023-03-13T05:27:39;98558.19;;;11.35;90.65
48095;BME280;33874;52.070;-0.516;2023-03-13T05:30:07;98545.70;;;11.35;90.76
48095;BME280;33874;52.070;-0.516;2023-03-13T05:32:38;98546.54;;;11.34;90.61
48095;BME280;33874;52.070;-0.516;2023-03-13T05:35:05;98562.16;;;11.33;90.45
48095;BME280;33874;52.070;-0.516;2023-03-13T05:37:33;98560.81;;;11.33;90.44
48095;BME280;33874;52.070;-0.516;2023-03-13T05:40:01;98561.86;;;11.32;90.39
48095;BME280;33874;52.070;-0.516;2023-03-13T05:42:30;98558.30;;;11.34;90.42
48095;BME280;33874;52.070;-0.516;2023-03-13T05:44:58;98554.05;;;11.35;90.08
48095;BME280;33874;52.070;-0.516;2023-03-13T05:47:26;98552.59;;;11.34;89.77
48095;BME280;33874;52.070;-0.516;2023-03-13T05:49:54;98550.07;;;11.34;89.80
48095;BME280;33874;52.070;-0.516;2023-03-13T05:52:22;98540.30;;;11.34;89.48
48095;BME280;33874;52.070;-0.516;2023-03-13T05:54:49;98532.83;;;11.31;89.33
48095;BME280;33874;52.070;-0.516;2023-03-13T05:57:17;98532.97;;;11.28;89.12
48095;BME280;33874;52.070;-0.516;2023-03-13T05:59:45;98536.41;;;11.26;89.04
48095;BME280;33874;52.070;-0.516;2023-03-13T06:02:13;98530.91;;;11.25;88.94
48095;BME280;33874;52.070;-0.516;2023-03-13T06:04:41;98529.83;;;11.25;88.83
48095;BME280;33874;52.070;-0.516;2023-03-13T06:07:09;98533.41;;;11.26;88.59
48095;BME280;33874;52.070;-0.516;2023-03-13T06:09:38;98528.73;;;11.26;88.26
48095;BME280;33874;52.070;-0.516;2023-03-13T06:12:08;98535.23;;;11.26;88.05
48095;BME280;33874;52.070;-0.516;2023-03-13T06:14:36;98524.36;;;11.27;87.96
48095;BME280;33874;52.070;-0.516;2023-03-13T06:17:04;98529.55;;;11.26;87.70
48095;BME280;33874;52.070;-0.516;2023-03-13T06:19:32;98519.56;;;11.26;87.36
48095;BME280;33874;52.070;-0.516;2023-03-13T06:22:00;98515.41;;;11.26;87.16
48095;BME280;33874;52.070;-0.516;2023-03-13T06:24:28;98517.70;;;11.23;86.87
48095;BME280;33874;52.070;-0.516;2023-03-13T06:26:56;98508.27;;;11.21;86.66
48095;BME280;33874;52.070;-0.516;2023-03-13T06:29:24;98512.04;;;11.20;86.66
48095;BME280;33874;52.070;-0.516;2023-03-13T06:31:52;98494.87;;;11.20;86.32
48095;BME280;33874;52.070;-0.516;2023-03-13T06:34:20;98488.62;;;11.20;86.04
48095;BME280;33874;52.070;-0.516;2023-03-13T06:36:48;98490.77;;;11.20;85.78
48095;BME280;33874;52.070;-0.516;2023-03-13T06:39:19;98475.35;;;11.18;85.51
48095;BME280;33874;52.070;-0.516;2023-03-13T06:41:47;98480.81;;;11.17;85.10
48095;BME280;33874;52.070;-0.516;2023-03-13T06:44:15;98474.35;;;11.17;85.03
48095;BME280;33874;52.070;-0.516;2023-03-13T06:46:42;98472.48;;;11.16;84.64
48095;BME280;33874;52.070;-0.516;2023-03-13T06:49:10;98470.95;;;11.17;84.51
48095;BME280;33874;52.070;-0.516;2023-03-13T06:51:38;98467.03;;;11.19;84.40
48095;BME280;33874;52.070;-0.516;2023-03-13T06:54:06;98471.84;;;11.21;84.30
48095;BME280;33874;52.070;-0.516;2023-03-13T06:56:35;98467.31;;;11.23;83.89
48095;BME280;33874;52.070;-0.516;2023-03-13T06:59:03;98462.99;;;11.27;83.67
48095;BME280;33874;52.070;-0.516;2023-03-13T07:01:31;98442.75;;;11.42;83.24
48095;BME280;33874;52.070;-0.516;2023-03-13T07:03:59;98447.80;;;11.62;82.68
48095;BME280;33874;52.070;-0.516;2023-03-13T07:06:27;98448.96;;;11.73;82.37
48095;BME280;33874;52.070;-0.516;2023-03-13T07:08:55;98450.54;;;11.70;81.70
48095;BME280;33874;52.070;-0.516;2023-03-13T07:11:23;98447.34;;;11.73;81.42
48095;BME280;33874;52.070;-0.516;2023-03-13T07:13:53;98455.64;;;11.93;80.98
48095;BME280;33874;52.070;-0.516;2023-03-13T07:16:41;98443.98;;;11.93;80.73
48095;BME280;33874;52.070;-0.516;2023-03-13T07:19:09;98440.11;;;11.89;80.75
48095;BME280;33874;52.070;-0.516;2023-03-13T07:21:37;98432.90;;;11.85;80.80
48095;BME280;33874;52.070;-0.516;2023-03-13T07:24:05;98435.46;;;11.87;80.44
48095;BME280;33874;52.070;-0.516;2023-03-13T07:26:33;98432.90;;;12.01;79.72
48095;BME280;33874;52.070;-0.516;2023-03-13T07:29:01;98432.48;;;12.13;79.40
48095;BME280;33874;52.070;-0.516;2023-03-13T07:31:29;98429.89;;;12.29;79.17
48095;BME280;33874;52.070;-0.516;2023-03-13T07:34:00;98429.21;;;12.42;78.52
48095;BME280;33874;52.070;-0.516;2023-03-13T07:36:28;98426.70;;;12.49;78.40
48095;BME280;33874;52.070;-0.516;2023-03-13T07:38:57;98428.58;;;12.50;77.79
48095;BME280;33874;52.070;-0.516;2023-03-13T07:41:25;98433.96;;;12.44;77.77
48095;BME280;33874;52.070;-0.516;2023-03-13T07:43:53;98440.52;;;12.33;77.86
48095;BME280;33874;52.070;-0.516;2023-03-13T07:46:21;98432.91;;;12.23;77.85
48095;BME280;33874;52.070;-0.516;2023-03-13T07:48:49;98441.02;;;12.14;77.84
48095;BME280;33874;52.070;-0.516;2023-03-13T07:51:19;98438.50;;;12.09;77.95
48095;BME280;33874;52.070;-0.516;2023-03-13T07:54:00;98438.58;;;12.06;77.98
48095;BME280;33874;52.070;-0.516;2023-03-13T07:56:27;98438.78;;;12.05;78.20
48095;BME280;33874;52.070;-0.516;2023-03-13T07:58:55;98431.47;;;12.07;78.01
48095;BME280;33874;52.070;-0.516;2023-03-13T08:01:24;98432.19;;;12.14;77.97
48095;BME280;33874;52.070;-0.516;2023-03-13T08:03:56;98442.42;;;12.19;77.81
48095;BME280;33874;52.070;-0.516;2023-03-13T08:06:28;98427.70;;;12.19;77.57
48095;BME280;33874;52.070;-0.516;2023-03-13T08:09:00;98425.52;;;12.17;77.49
48095;BME280;33874;52.070;-0.516;2023-03-13T08:11:28;98431.60;;;12.20;76.88
48095;BME280;33874;52.070;-0.516;2023-03-13T08:13:57;98427.48;;;12.27;77.00
48095;BME280;33874;52.070;-0.516;2023-03-13T08:16:28;98424.28;;;12.40;76.93
48095;BME280;33874;52.070;-0.516;2023-03-13T08:18:57;98432.89;;;12.51;76.23
48095;BME280;33874;52.070;-0.516;2023-03-13T08:21:26;98427.27;;;12.63;75.45
48095;BME280;33874;52.070;-0.516;2023-03-13T08:23:55;98425.21;;;12.70;75.60
48095;BME280;33874;52.070;-0.516;2023-03-13T08:26:25;98422.69;;;12.72;75.44
48095;BME280;33874;52.070;-0.516;2023-03-13T08:28:55;98413.01;;;12.71;75.30
48095;BME280;33874;52.070;-0.516;2023-03-13T08:31:24;98404.55;;;12.69;75.29
48095;BME280;33874;52.070;-0.516;2023-03-13T08:33:52;98412.59;;;12.70;75.18
48095;BME280;33874;52.070;-0.516;2023-03-13T08:36:22;98408.88;;;12.75;74.98
48095;BME280;33874;52.070;-0.516;2023-03-13T08:38:52;98415.71;;;12.82;74.43
48095;BME280;33874;52.070;-0.516;2023-03-13T08:41:24;98406.69;;;12.93;74.52
48095;BME280;33874;52.070;-0.516;2023-03-13T08:43:52;98405.35;;;12.98;74.41
48095;BME280;33874;52.070;-0.516;2023-03-13T08:46:21;98403.07;;;13.09;73.91
48095;BME280;33874;52.070;-0.516;2023-03-13T08:48:49;98396.77;;;13.16;73.85
48095;BME280;33874;52.070;-0.516;2023-03-13T08:51:18;98397.36;;;13.25;73.64
48095;BME280;33874;52.070;-0.516;2023-03-13T08:53:47;98396.84;;;13.29;73.62
48095;BME280;33874;52.070;-0.516;2023-03-13T08:56:17;98387.50;;;13.37;73.29
48095;BME280;33874;52.070;-0.516;2023-03-13T08:58:50;98385.65;;;13.42;72.72
48095;BME280;33874;52.070;-0.516;2023-03-13T09:01:18;98389.38;;;13.49;72.87
48095;BME280;33874;52.070;-0.516;2023-03-13T09:03:46;98389.18;;;13.56;72.47
48095;BME280;33874;52.070;-0.516;2023-03-13T09:06:15;98390.91;;;13.59;72.42
48095;BME280;33874;52.070;-0.516;2023-03-13T09:08:43;98389.93;;;13.60;72.60
48095;BME280;33874;52.070;-0.516;2023-03-13T09:11:18;98392.42;;;13.63;71.97
48095;BME280;33874;52.070;-0.516;2023-03-13T09:13:47;98382.11;;;13.64;71.95
48095;BME280;33874;52.070;-0.516;2023-03-13T09:16:16;98391.67;;;13.66;71.88
48095;BME280;33874;52.070;-0.516;2023-03-13T09:18:44;98386.63;;;13.64;71.56
48095;BME280;33874;52.070;-0.516;2023-03-13T09:21:17;98383.66;;;13.62;71.14
48095;BME280;33874;52.070;-0.516;2023-03-13T09:23:46;98388.96;;;13.59;71.34
48095;BME280;33874;52.070;-0.516;2023-03-13T09:26:14;98374.63;;;13.55;71.31
48095;BME280;33874;52.070;-0.516;2023-03-13T09:28:42;98379.84;;;13.57;71.40
48095;BME280;33874;52.070;-0.516;2023-03-13T09:31:16;98381.02;;;13.63;70.87
48095;BME280;33874;52.070;-0.516;2023-03-13T09:33:45;98372.55;;;13.60;70.83
48095;BME280;33874;52.070;-0.516;2023-03-13T09:36:13;98377.63;;;13.63;70.69
48095;BME280;33874;52.070;-0.516;2023-03-13T09:38:41;98380.66;;;13.69;70.76
48095;BME280;33874;52.070;-0.516;2023-03-13T09:46:38;98395.36;;;13.87;70.36
48095;BME280;33874;52.070;-0.516;2023-03-13T09:51:45;98395.13;;;14.05;69.90
48095;BME280;33874;52.070;-0.516;2023-03-13T10:02:20;98400.91;;;13.63;70.10
48095;BME280;33874;52.070;-0.516;2023-03-13T10:05:34;98397.02;;;13.69;70.85
48095;BME280;33874;52.070;-0.516;2023-03-13T10:07:43;98392.77;;;13.83;70.77
48095;BME280;33874;52.070;-0.516;2023-03-13T10:10:18;98404.92;;;13.92;70.50
48095;BME280;33874;52.070;-0.516;2023-03-13T10:12:48;98401.81;;;13.97;69.91
48095;BME280;33874;52.070;-0.516;2023-03-13T10:17:46;98411.38;;;14.02;69.86
48095;BME280;33874;52.070;-0.516;2023-03-13T10:20:25;98408.02;;;14.03;69.38
48095;BME280;33874;52.070;-0.516;2023-03-13T10:22:56;98406.31;;;14.01;69.32
48095;BME280;33874;52.070;-0.516;2023-03-13T10:25:34;98391.78;;;13.98;69.55
48095;BME280;33874;52.070;-0.516;2023-03-13T10:28:02;98402.28;;;14.01;69.80
48095;BME280;33874;52.070;-0.516;2023-03-13T10:30:31;98417.30;;;13.93;69.50
48095;BME280;33874;52.070;-0.516;2023-03-13T10:35:39;98399.30;;;13.79;70.02
48095;BME280;33874;52.070;-0.516;2023-03-13T10:40:36;98401.66;;;13.90;69.97
48095;BME280;33874;52.070;-0.516;2023-03-13T10:43:05;98397.30;;;14.07;69.62
48095;BME280;33874;52.070;-0.516;2023-03-13T10:45:39;98400.35;;;14.08;69.19
48095;BME280;33874;52.070;-0.516;2023-03-13T10:48:11;98386.05;;;14.05;68.65
48095;BME280;33874;52.070;-0.516;2023-03-13T10:50:44;98377.44;;;14.15;68.97
48095;BME280;33874;52.070;-0.516;2023-03-13T10:55:59;98375.30;;;14.55;68.46
48095;BME280;33874;52.070;-0.516;2023-03-13T10:58:32;98375.29;;;14.70;68.15
48095;BME280;33874;52.070;-0.516;2023-03-13T11:03:42;98379.55;;;14.89;66.89
48095;BME280;33874;52.070;-0.516;2023-03-13T11:06:24;98383.11;;;15.09;65.89
48095;BME280;33874;52.070;-0.516;2023-03-13T11:12:00;98385.31;;;15.44;65.73
48095;BME280;33874;52.070;-0.516;2023-03-13T11:14:28;98388.52;;;15.52;65.39
48095;BME280;33874;52.070;-0.516;2023-03-13T11:19:28;98390.66;;;15.76;64.38
48095;BME280;33874;52.070;-0.516;2023-03-13T11:24:31;98385.97;;;15.91;63.86
48095;BME280;33874;52.070;-0.516;2023-03-13T11:27:05;98389.67;;;15.88;62.98
48095;BME280;33874;52.070;-0.516;2023-03-13T11:29:38;98390.55;;;15.78;62.98
48095;BME280;33874;52.070;-0.516;2023-03-13T11:32:13;98390.14;;;15.75;62.34
48095;BME280;33874;52.070;-0.516;2023-03-13T11:34:49;98391.55;;;15.77;62.48
48095;BME280;33874;52.070;-0.516;2023-03-13T11:37:18;98394.67;;;15.86;62.21
48095;BME280;33874;52.070;-0.516;2023-03-13T11:39:58;98390.89;;;15.84;62.16
48095;BME280;33874;52.070;-0.516;2023-03-13T11:47:42;98399.55;;;15.86;62.65
48095;BME280;33874;52.070;-0.516;2023-03-13T11:50:16;98401.10;;;15.86;62.28
48095;BME280;33874;52.070;-0.516;2023-03-13T12:01:36;98391.30;;;16.41;61.44
48095;BME280;33874;52.070;-0.516;2023-03-13T12:03:31;98388.34;;;16.48;60.54
48095;BME280;33874;52.070;-0.516;2023-03-13T12:06:02;98398.40;;;16.42;60.58
48095;BME280;33874;52.070;-0.516;2023-03-13T12:08:45;98390.11;;;16.48;60.57
48095;BME280;33874;52.070;-0.516;2023-03-13T12:11:38;98391.77;;;16.37;60.03
48095;BME280;33874;52.070;-0.516;2023-03-13T12:14:14;98388.88;;;16.36;60.62
48095;BME280;33874;52.070;-0.516;2023-03-13T12:16:46;98379.30;;;16.45;60.86
48095;BME280;33874;52.070;-0.516;2023-03-13T12:19:18;98385.70;;;16.47;60.13
48095;BME280;33874;52.070;-0.516;2023-03-13T12:21:49;98380.39;;;16.41;60.05
48095;BME280;33874;52.070;-0.516;2023-03-13T12:27:23;98373.55;;;16.35;60.06
48095;BME280;33874;52.070;-0.516;2023-03-13T12:32:35;98378.92;;;16.43;59.98
48095;BME280;33874;52.070;-0.516;2023-03-13T12:37:44;98379.68;;;16.32;59.10
48095;BME280;33874;52.070;-0.516;2023-03-13T12:40:35;98381.81;;;16.31;59.16
48095;BME280;33874;52.070;-0.516;2023-03-13T12:43:27;98367.31;;;16.25;59.09
48095;BME280;33874;52.070;-0.516;2023-03-13T12:51:07;98360.71;;;16.19;59.40
48095;BME280;33874;52.070;-0.516;2023-03-13T12:59:18;98362.17;;;16.12;58.75
48095;BME280;33874;52.070;-0.516;2023-03-13T13:01:49;98364.55;;;16.06;58.97
48095;BME280;33874;52.070;-0.516;2023-03-13T13:04:21;98355.34;;;16.17;58.92
48095;BME280;33874;52.070;-0.516;2023-03-13T13:09:19;98351.59;;;16.14;58.93
48095;BME280;33874;52.070;-0.516;2023-03-13T13:11:49;98342.55;;;16.16;58.45
48095;BME280;33874;52.070;-0.516;2023-03-13T13:16:50;98338.31;;;16.08;58.92
48095;BME280;33874;52.070;-0.516;2023-03-13T13:24:38;98332.63;;;16.42;58.50
48095;BME280;33874;52.070;-0.516;2023-03-13T13:27:26;98329.09;;;16.48;58.78
48095;BME280;33874;52.070;-0.516;2023-03-13T13:29:54;98324.65;;;16.45;58.53
48095;BME280;33874;52.070;-0.516;2023-03-13T13:32:33;98318.56;;;16.38;58.40
48095;BME280;33874;52.070;-0.516;2023-03-13T13:37:39;98325.94;;;16.29;58.85
48095;BME280;33874;52.070;-0.516;2023-03-13T13:40:28;98325.67;;;16.27;58.88
48095;BME280;33874;52.070;-0.516;2023-03-13T13:43:01;98326.46;;;16.12;58.68
48095;BME280;33874;52.070;-0.516;2023-03-13T13:53:32;98323.98;;;15.40;60.07
48095;BME280;33874;52.070;-0.516;2023-03-13T13:56:01;98312.16;;;15.33;60.40
48095;BME280;33874;52.070;-0.516;2023-03-13T13:58:37;98318.23;;;15.18;60.68
48095;BME280;33874;52.070;-0.516;2023-03-13T14:01:13;98314.06;;;15.23;60.70
48095;BME280;33874;52.070;-0.516;2023-03-13T14:03:43;98306.81;;;15.25;60.43
48095;BME280;33874;52.070;-0.516;2023-03-13T14:06:16;98303.60;;;15.24;60.76
48095;BME280;33874;52.070;-0.516;2023-03-13T14:08:45;98309.91;;;15.17;60.89
48095;BME280;33874;52.070;-0.516;2023-03-13T14:16:36;98304.84;;;14.68;61.96
48095;BME280;33874;52.070;-0.516;2023-03-13T14:19:04;98307.33;;;14.57;62.48
48095;BME280;33874;52.070;-0.516;2023-03-13T14:21:32;98307.98;;;14.56;62.53
48095;BME280;33874;52.070;-0.516;2023-03-13T14:24:01;98305.13;;;14.66;62.74
48095;BME280;33874;52.070;-0.516;2023-03-13T14:26:41;98306.86;;;14.70;62.69
48095;BME280;33874;52.070;-0.516;2023-03-13T14:29:14;98298.71;;;14.69;62.69
48095;BME280;33874;52.070;-0.516;2023-03-13T14:31:49;98300.09;;;14.65;62.74
48095;BME280;33874;52.070;-0.516;2023-03-13T14:34:18;98293.73;;;14.58;62.73
48095;BME280;33874;52.070;-0.516;2023-03-13T14:36:52;98292.09;;;14.47;63.10
48095;BME280;33874;52.070;-0.516;2023-03-13T14:39:41;98295.60;;;14.38;63.14
48095;BME280;33874;52.070;-0.516;2023-03-13T14:42:12;98287.49;;;14.43;63.22
48095;BME280;33874;52.070;-0.516;2023-03-13T14:44:40;98274.88;;;14.49;63.36
48095;BME280;33874;52.070;-0.516;2023-03-13T14:49:47;98268.09;;;14.52;63.36
48095;BME280;33874;52.070;-0.516;2023-03-13T14:52:22;98255.65;;;14.56;63.10
48095;BME280;33874;52.070;-0.516;2023-03-13T14:54:52;98253.44;;;14.73;63.19
48095;BME280;33874;52.070;-0.516;2023-03-13T14:57:21;98244.90;;;14.78;63.20